createdAt,value
2022-09-27T00:03:42.486Z,1.07
2022-09-27T00:09:53.798Z,1.17
2022-09-27T00:16:07.861Z,0.90
2022-09-27T00:22:19.666Z,1.17
2022-09-27T00:28:32.773Z,1.12
2022-09-27T00:34:48.271Z,0.85
2022-09-27T00:40:57.889Z,0.90
2022-09-27T00:47:12.326Z,1.30
2022-09-27T00:53:27.700Z,0.90
2022-09-27T00:59:45.484Z,0.70
2022-09-27T01:05:53.728Z,1.02
2022-09-27T01:12:07.999Z,0.35
2022-09-27T01:18:49.593Z,0.70
2022-09-27T01:25:07.026Z,0.55
2022-09-27T01:31:20.107Z,0.65
2022-09-27T01:37:33.948Z,0.82
2022-09-27T01:43:47.303Z,0.68
2022-09-27T01:50:02.279Z,0.40
2022-09-27T01:56:15.772Z,0.62
2022-09-27T02:02:29.978Z,0.50
2022-09-27T02:08:47.097Z,1.05
2022-09-27T02:15:01.390Z,0.65
2022-09-27T02:21:13.276Z,0.95
2022-09-27T02:27:24.466Z,0.72
2022-09-27T02:33:37.842Z,1.27
2022-09-27T02:39:52.121Z,0.68
2022-09-27T02:46:09.169Z,0.42
2022-09-27T02:52:28.240Z,0.80
2022-09-27T02:58:43.570Z,0.85
2022-09-27T03:04:54.868Z,0.72
2022-09-27T03:11:07.525Z,0.75
2022-09-27T03:17:22.178Z,1.00
2022-09-27T03:23:35.248Z,1.92
2022-09-27T03:29:45.130Z,2.02
2022-09-27T03:35:56.638Z,2.60
2022-09-27T03:42:07.543Z,2.72
2022-09-27T03:48:17.130Z,1.70
2022-09-27T03:54:30.037Z,2.72
2022-09-27T04:00:41.869Z,2.55
2022-09-27T04:06:54.619Z,2.20
2022-09-27T04:13:05.186Z,3.08
2022-09-27T04:19:17.230Z,2.77
2022-09-27T04:25:29.980Z,2.45
2022-09-27T04:31:40.812Z,2.12
2022-09-27T04:37:52.481Z,3.15
2022-09-27T04:44:03.558Z,1.42
2022-09-27T04:50:18.690Z,1.87
2022-09-27T04:56:26.891Z,1.98
2022-09-27T05:02:35.841Z,1.85
2022-09-27T05:08:44.052Z,1.62
2022-09-27T05:14:52.811Z,1.62
2022-09-27T05:21:05.498Z,1.37
2022-09-27T05:27:22.879Z,1.45
2022-09-27T05:33:30.298Z,0.78
2022-09-27T05:39:39.403Z,1.52
2022-09-27T05:45:53.788Z,0.88
2022-09-27T05:52:01.173Z,1.60
2022-09-27T05:58:10.658Z,2.05
2022-09-27T06:04:23.882Z,1.17
2022-09-27T06:10:36.464Z,1.45
2022-09-27T06:16:50.982Z,0.80
2022-09-27T06:23:09.816Z,0.65
2022-09-27T06:29:21.767Z,1.12
2022-09-27T06:35:32.748Z,0.93
2022-09-27T06:41:43.579Z,0.65
2022-09-27T06:47:55.586Z,0.88
2022-09-27T06:54:06.701Z,1.15
2022-09-27T07:00:31.748Z,0.95
2022-09-27T07:06:41.012Z,0.70
2022-09-27T07:12:51.000Z,1.25
2022-09-27T07:19:03.859Z,0.80
2022-09-27T07:25:17.662Z,1.15
2022-09-27T07:31:27.663Z,0.42
2022-09-27T07:37:42.427Z,0.50
2022-09-27T07:43:52.094Z,0.65
2022-09-27T07:50:06.882Z,0.62
2022-09-27T07:56:18.291Z,0.70
2022-09-27T08:02:32.540Z,0.60
2022-09-27T08:08:46.114Z,0.80
2022-09-27T08:15:00.072Z,0.35
2022-09-27T08:21:14.498Z,0.98
2022-09-27T08:27:27.511Z,0.70
2022-09-27T08:33:41.386Z,0.80
2022-09-27T08:39:52.702Z,0.60
2022-09-27T08:46:15.164Z,1.00
2022-09-27T08:52:30.046Z,0.68
2022-09-27T08:58:43.462Z,0.80
2022-09-27T09:04:55.297Z,0.70
2022-09-27T09:11:27.173Z,0.55
2022-09-27T09:17:47.742Z,0.60
2022-09-27T09:24:19.921Z,0.37
2022-09-27T09:30:32.685Z,0.88
2022-09-27T09:36:45.869Z,0.70
2022-09-27T09:43:01.026Z,0.60
2022-09-27T09:49:18.882Z,0.35
2022-09-27T09:55:31.116Z,0.50
2022-09-27T10:01:45.142Z,0.42
2022-09-27T10:07:55.069Z,0.62
2022-09-27T10:14:07.006Z,0.65
2022-09-27T10:20:20.051Z,0.40
2022-09-27T10:26:31.028Z,0.50
2022-09-27T10:32:43.705Z,0.62
2022-09-27T10:38:58.846Z,0.90
2022-09-27T10:45:29.939Z,0.50
2022-09-27T10:51:41.656Z,0.65
2022-09-27T10:57:57.082Z,0.80
2022-09-27T11:04:08.049Z,0.70
2022-09-27T11:10:34.014Z,0.90
2022-09-27T11:16:53.466Z,0.47
2022-09-27T11:23:37.327Z,0.60
2022-09-27T11:29:55.414Z,0.95
2022-09-27T11:36:09.724Z,0.42
2022-09-27T11:42:30.561Z,0.40
2022-09-27T11:48:51.227Z,0.68
2022-09-27T11:55:14.850Z,0.40
2022-09-27T12:01:30.948Z,0.62
2022-09-27T12:07:44.064Z,0.60
2022-09-27T12:13:55.934Z,0.60
2022-09-27T12:20:10.524Z,0.53
2022-09-27T12:26:22.889Z,0.45
2022-09-27T12:32:37.087Z,0.50
2022-09-27T12:38:50.388Z,0.55
2022-09-27T12:45:03.547Z,0.62
2022-09-27T12:51:16.348Z,0.60
2022-09-27T12:57:34.739Z,0.50
2022-09-27T13:04:13.432Z,0.68
2022-09-27T13:10:48.131Z,0.78
2022-09-27T13:17:00.351Z,0.45
2022-09-27T13:23:33.275Z,0.70
2022-09-27T13:29:45.856Z,0.40
2022-09-27T13:36:26.067Z,0.60
2022-09-27T13:42:42.221Z,1.50
2022-09-27T13:48:56.945Z,0.60
2022-09-27T13:55:12.271Z,0.47
2022-09-27T14:01:30.945Z,0.60
2022-09-27T14:07:49.977Z,0.75
2022-09-27T14:14:04.655Z,0.75
2022-09-27T14:20:36.226Z,0.60
2022-09-27T14:26:47.101Z,0.62
2022-09-27T14:33:08.574Z,0.53
2022-09-27T14:39:25.799Z,0.85
2022-09-27T14:45:39.070Z,0.88
2022-09-27T14:51:55.714Z,0.90
2022-09-27T14:58:19.838Z,0.95
2022-09-27T15:04:22.023Z,1.10
2022-09-27T15:10:33.802Z,1.07
2022-09-27T15:16:46.180Z,0.70
2022-09-27T15:22:56.917Z,0.82
2022-09-27T15:29:08.477Z,0.85
2022-09-27T15:35:28.847Z,1.65
2022-09-27T15:41:42.238Z,0.50
2022-09-27T15:47:59.107Z,0.53
2022-09-27T15:54:11.125Z,0.80
2022-09-27T16:00:22.803Z,0.95
2022-09-27T16:06:37.120Z,0.60
2022-09-27T16:12:51.106Z,0.57
2022-09-27T16:19:01.944Z,0.95
2022-09-27T16:25:15.993Z,0.47
2022-09-27T16:31:30.437Z,4.97
2022-09-27T16:37:43.931Z,5.70
2022-09-27T16:43:55.556Z,4.95
2022-09-27T16:50:24.936Z,3.92
2022-09-27T16:56:37.581Z,4.35
2022-09-27T17:02:53.007Z,2.80
2022-09-27T17:09:08.579Z,3.13
2022-09-27T17:15:20.342Z,2.87
2022-09-27T17:21:37.091Z,2.80
2022-09-27T17:27:48.664Z,2.83
2022-09-27T17:33:59.229Z,2.25
2022-09-27T17:40:13.034Z,2.00
2022-09-27T17:46:24.548Z,1.50
2022-09-27T17:52:37.208Z,1.57
2022-09-27T17:58:53.999Z,2.45
2022-09-27T18:05:07.937Z,1.85
2022-09-27T18:11:25.009Z,1.70
2022-09-27T18:17:36.995Z,1.12
2022-09-27T18:23:50.109Z,2.22
2022-09-27T18:30:03.398Z,1.87
2022-09-27T18:36:19.355Z,1.80
2022-09-27T18:42:28.580Z,1.40
2022-09-27T18:48:43.335Z,2.02
2022-09-27T18:55:01.905Z,2.22
2022-09-27T19:01:12.945Z,1.20
2022-09-27T19:07:24.660Z,1.32
2022-09-27T19:13:46.017Z,1.65
2022-09-27T19:19:50.393Z,1.80
2022-09-27T19:26:03.964Z,1.25
2022-09-27T19:32:13.909Z,1.65
2022-09-27T19:38:26.649Z,1.15
2022-09-27T19:44:40.240Z,1.45
2022-09-27T19:51:01.006Z,1.00
2022-09-27T19:57:14.196Z,1.37
2022-09-27T20:03:26.119Z,0.80
2022-09-27T20:09:37.701Z,1.67
2022-09-27T20:15:50.903Z,1.10
2022-09-27T20:22:03.430Z,1.25
2022-09-27T20:28:15.456Z,1.05
2022-09-27T20:34:25.686Z,1.20
2022-09-27T20:40:41.205Z,1.12
2022-09-27T20:46:55.931Z,0.90
2022-09-27T20:53:12.616Z,1.05
2022-09-27T20:59:25.331Z,0.90
2022-09-27T21:05:41.771Z,1.20
2022-09-27T21:11:54.374Z,1.00
2022-09-27T21:18:08.979Z,0.78
2022-09-27T21:24:21.108Z,1.60
2022-09-27T21:30:36.551Z,1.15
2022-09-27T21:36:48.910Z,0.70
2022-09-27T21:43:03.971Z,1.02
2022-09-27T21:49:18.856Z,1.55
2022-09-27T21:55:28.774Z,1.10
2022-09-27T22:01:43.170Z,0.70
2022-09-27T22:07:58.507Z,1.15
2022-09-27T22:14:13.740Z,1.03
2022-09-27T22:20:24.104Z,0.88
2022-09-27T22:26:36.246Z,1.02
2022-09-27T22:32:49.816Z,1.25
2022-09-27T22:38:57.222Z,1.47
2022-09-27T22:45:15.367Z,0.90
2022-09-27T22:51:33.267Z,1.00
2022-09-27T22:57:44.024Z,0.60
2022-09-27T23:03:58.715Z,0.75
2022-09-27T23:10:19.703Z,1.07
2022-09-27T23:16:31.440Z,0.98
2022-09-27T23:22:45.846Z,1.25
2022-09-27T23:28:58.242Z,1.10
2022-09-27T23:35:11.735Z,0.95
2022-09-27T23:41:22.132Z,1.05
2022-09-27T23:47:33.332Z,0.60
2022-09-27T23:53:48.385Z,1.25
